Time;durP1;ratioP1;P1;durP2;ratioP2;P2;SDS_P1;SDS_P2;PMS_P1;PMS_P2;Temp;Humidity;BMP_temperature;BMP_pressure;BME280_temperature;BME280_humidity;BME280_pressure;Samples;Min_cycle;Max_cycle;Signal;HPM_P1;HPM_P2
2022/06/27 00:01:33;;;;;;;11.38;6.15;;;17.10;99.90;;;;;;5035428;28;20116;-85
2022/06/27 00:03:59;;;;;;;9.27;6.07;;;17.10;99.90;;;;;;5035317;28;20458;-86
2022/06/27 00:06:25;;;;;;;9.95;5.85;;;17.10;99.90;;;;;;5035133;28;20441;-86
2022/06/27 00:08:51;;;;;;;8.15;5.65;;;17.10;99.90;;;;;;5036266;28;20053;-85
2022/06/27 00:11:18;;;;;;;7.00;5.70;;;17.10;99.90;;;;;;5035079;28;20052;-85
2022/06/27 00:13:44;;;;;;;8.68;5.85;;;17.10;99.90;;;;;;5035041;28;20091;-85
2022/06/27 00:16:10;;;;;;;5.88;5.05;;;17.00;99.90;;;;;;5035316;28;20536;-85
2022/06/27 00:18:35;;;;;;;9.52;6.32;;;17.10;99.90;;;;;;5034797;28;20037;-85
2022/06/27 00:21:01;;;;;;;6.53;5.50;;;17.10;99.90;;;;;;5018398;28;20029;-85
2022/06/27 00:23:27;;;;;;;9.93;5.55;;;17.10;99.90;;;;;;5016227;28;20030;-85
2022/06/27 00:25:53;;;;;;;9.75;6.30;;;17.10;99.90;;;;;;5031633;28;20029;-85
2022/06/27 00:28:18;;;;;;;10.85;6.05;;;17.10;99.90;;;;;;5031961;28;20026;-86
2022/06/27 00:30:44;;;;;;;8.18;6.35;;;17.10;99.90;;;;;;5014699;28;20145;-85
2022/06/27 00:33:09;;;;;;;8.40;6.25;;;17.00;99.90;;;;;;5014694;28;20398;-86
2022/06/27 00:35:35;;;;;;;6.82;5.70;;;17.00;99.90;;;;;;5014871;28;20053;-86
2022/06/27 00:38:00;;;;;;;7.80;6.57;;;17.00;99.90;;;;;;5014822;28;20029;-85
2022/06/27 00:40:26;;;;;;;7.13;6.22;;;17.00;99.90;;;;;;5014626;28;20017;-85
2022/06/27 00:42:52;;;;;;;8.35;5.65;;;17.00;99.90;;;;;;5014686;28;20064;-85
2022/06/27 00:45:17;;;;;;;7.28;5.85;;;17.10;99.90;;;;;;5014712;28;20125;-85
2022/06/27 00:47:43;;;;;;;7.10;5.72;;;17.00;99.90;;;;;;5014680;28;20021;-85
2022/06/27 00:50:09;;;;;;;9.90;5.72;;;17.10;99.90;;;;;;5014695;28;20486;-85
2022/06/27 00:52:35;;;;;;;8.38;5.15;;;17.10;99.90;;;;;;5014366;28;20025;-85
2022/06/27 00:55:01;;;;;;;7.03;5.38;;;17.00;99.90;;;;;;5014585;28;20113;-85
2022/06/27 00:57:28;;;;;;;7.38;5.15;;;17.00;99.90;;;;;;5014587;28;20037;-85
2022/06/27 00:59:53;;;;;;;7.15;5.95;;;17.00;99.90;;;;;;5014585;28;20037;-85
2022/06/27 01:02:19;;;;;;;9.93;6.68;;;17.00;99.90;;;;;;5014264;28;20029;-86
2022/06/27 01:04:45;;;;;;;7.45;5.93;;;17.00;99.90;;;;;;5014212;28;20033;-86
2022/06/27 01:07:11;;;;;;;7.47;6.50;;;17.00;99.90;;;;;;5014206;28;20052;-85
2022/06/27 01:09:38;;;;;;;9.93;6.30;;;17.00;99.90;;;;;;5014440;28;20026;-86
2022/06/27 01:12:04;;;;;;;10.32;6.28;;;17.00;99.90;;;;;;5014137;28;20057;-86
2022/06/27 01:14:30;;;;;;;9.43;6.05;;;16.90;99.90;;;;;;5014021;28;20044;-86
2022/06/27 01:16:56;;;;;;;9.02;6.97;;;17.00;99.90;;;;;;5013782;28;20490;-85
2022/06/27 01:19:21;;;;;;;9.88;6.22;;;17.00;99.90;;;;;;5014331;28;20022;-85
2022/06/27 01:21:50;;;;;;;8.45;6.13;;;17.00;99.90;;;;;;5013760;28;20036;-85
2022/06/27 01:24:20;;;;;;;11.27;7.43;;;16.90;99.90;;;;;;5014044;28;20466;-85
2022/06/27 01:26:47;;;;;;;9.30;6.38;;;16.90;99.90;;;;;;5013941;28;20566;-85
2022/06/27 01:29:13;;;;;;;9.25;6.00;;;17.00;99.90;;;;;;5014013;28;20032;-85
2022/06/27 01:31:39;;;;;;;8.80;5.65;;;17.00;99.90;;;;;;5013877;28;20498;-85
2022/06/27 01:34:06;;;;;;;7.20;6.05;;;16.90;99.90;;;;;;5014288;28;20104;-86
2022/06/27 01:36:43;;;;;;;8.38;5.78;;;16.90;99.90;;;;;;5013547;28;20042;-85
2022/06/27 01:39:24;;;;;;;9.65;6.28;;;16.90;99.90;;;;;;5013740;28;20033;-85
2022/06/27 01:42:02;;;;;;;10.02;4.88;;;16.90;99.90;;;;;;5013825;28;20088;-85
2022/06/27 01:44:30;;;;;;;6.85;5.93;;;16.90;99.90;;;;;;5013643;28;20022;-85
2022/06/27 01:47:03;;;;;;;10.55;6.55;;;16.90;99.90;;;;;;5013626;28;20049;-85
2022/06/27 01:49:31;;;;;;;9.02;6.30;;;16.90;99.90;;;;;;5013832;28;20449;-85
2022/06/27 01:51:57;;;;;;;9.10;6.05;;;16.90;99.90;;;;;;5014155;28;20018;-86
2022/06/27 01:54:24;;;;;;;8.50;6.78;;;16.90;99.90;;;;;;5013369;28;20029;-85
2022/06/27 01:56:51;;;;;;;8.32;6.35;;;16.90;99.90;;;;;;5014103;28;20401;-85
2022/06/27 01:59:19;;;;;;;9.43;7.05;;;16.90;99.90;;;;;;5013405;28;20083;-86
2022/06/27 02:01:45;;;;;;;12.57;7.93;;;16.90;99.90;;;;;;5013390;28;20033;-85
2022/06/27 02:04:12;;;;;;;9.85;7.85;;;16.90;99.90;;;;;;5014506;28;20351;-85
2022/06/27 02:06:39;;;;;;;9.48;7.68;;;16.90;99.90;;;;;;5013029;28;20052;-85
2022/06/27 02:09:07;;;;;;;11.40;7.28;;;16.80;99.90;;;;;;5013659;28;20075;-86
2022/06/27 02:11:33;;;;;;;15.23;8.50;;;16.80;99.90;;;;;;5012994;28;20028;-86
2022/06/27 02:13:59;;;;;;;10.63;7.82;;;16.90;99.90;;;;;;5014290;28;20032;-86
2022/06/27 02:16:25;;;;;;;10.13;7.65;;;16.80;99.90;;;;;;5014177;28;20104;-86
2022/06/27 02:18:51;;;;;;;10.13;7.65;;;16.80;99.90;;;;;;5012949;28;20614;-85
2022/06/27 02:21:19;;;;;;;8.63;7.32;;;16.80;99.90;;;;;;5014002;28;20061;-85
2022/06/27 02:23:44;;;;;;;9.73;7.68;;;16.80;99.90;;;;;;5029469;28;20033;-85
2022/06/27 02:26:12;;;;;;;9.80;7.10;;;16.80;99.90;;;;;;5013032;28;20422;-85
2022/06/27 02:28:39;;;;;;;12.00;8.25;;;16.80;99.90;;;;;;5012989;28;20450;-85
2022/06/27 02:31:07;;;;;;;8.52;7.13;;;16.80;99.90;;;;;;5012887;28;20058;-85
2022/06/27 02:33:38;;;;;;;9.55;7.22;;;16.80;99.90;;;;;;5013050;28;20057;-85
2022/06/27 02:36:06;;;;;;;9.07;8.00;;;16.70;99.90;;;;;;5012678;28;20096;-85
2022/06/27 02:38:32;;;;;;;11.93;7.68;;;16.70;99.90;;;;;;5012474;28;20486;-85
2022/06/27 02:41:01;;;;;;;11.88;7.93;;;16.70;99.90;;;;;;5012786;28;20505;-85
2022/06/27 02:43:29;;;;;;;8.45;7.43;;;16.70;99.90;;;;;;5012867;28;20076;-85
2022/06/27 02:45:56;;;;;;;11.38;8.45;;;16.70;99.90;;;;;;5013012;28;20085;-86
2022/06/27 02:48:26;;;;;;;10.27;7.68;;;16.60;99.90;;;;;;5012749;28;20084;-85
2022/06/27 02:50:56;;;;;;;11.75;7.63;;;16.70;99.90;;;;;;5013094;28;20028;-85
2022/06/27 02:53:31;;;;;;;14.35;8.13;;;16.60;99.90;;;;;;5012647;28;20026;-85
2022/06/27 02:56:01;;;;;;;9.27;6.53;;;16.70;99.90;;;;;;5012872;28;20026;-85
2022/06/27 02:58:50;;;;;;;11.30;7.38;;;16.70;99.90;;;;;;5012614;28;20445;-85
2022/06/27 03:01:19;;;;;;;10.32;6.70;;;16.70;99.90;;;;;;5012833;28;20022;-85
2022/06/27 03:03:48;;;;;;;10.43;6.55;;;16.60;99.90;;;;;;5014110;28;20504;-85
2022/06/27 03:06:14;;;;;;;10.07;8.30;;;16.60;99.90;;;;;;5016440;28;20044;-86
2022/06/27 03:08:43;;;;;;;10.05;7.45;;;16.50;99.90;;;;;;5016534;28;20022;-86
2022/06/27 03:11:16;;;;;;;10.82;7.72;;;16.50;99.90;;;;;;5016740;28;20036;-85
2022/06/27 03:13:43;;;;;;;13.68;7.75;;;16.50;99.90;;;;;;5016399;28;20022;-85
2022/06/27 03:16:09;;;;;;;8.32;6.72;;;16.50;99.90;;;;;;5026414;28;20389;-85
2022/06/27 03:18:35;;;;;;;9.27;7.03;;;16.50;99.90;;;;;;5035983;28;20037;-85
2022/06/27 03:21:01;;;;;;;10.13;6.78;;;16.40;99.90;;;;;;5036310;28;20025;-85
2022/06/27 03:23:27;;;;;;;12.93;8.10;;;16.40;99.90;;;;;;5036287;28;20025;-85
2022/06/27 03:25:54;;;;;;;12.50;8.13;;;16.30;99.90;;;;;;5035926;28;20052;-86
2022/06/27 03:28:19;;;;;;;10.98;8.10;;;16.30;99.90;;;;;;5035869;28;20063;-85
2022/06/27 03:30:45;;;;;;;11.50;9.57;;;16.30;99.90;;;;;;5035918;28;20049;-85
2022/06/27 03:33:11;;;;;;;12.68;9.30;;;16.30;99.90;;;;;;5035943;28;20040;-86
2022/06/27 03:35:37;;;;;;;12.25;8.32;;;16.30;99.90;;;;;;5035676;28;20088;-85
2022/06/27 03:38:03;;;;;;;12.35;8.15;;;16.30;99.90;;;;;;5035669;28;20432;-85
2022/06/27 03:40:28;;;;;;;11.50;8.05;;;16.30;99.90;;;;;;5035643;28;20426;-85
2022/06/27 03:42:54;;;;;;;11.15;7.82;;;16.30;99.90;;;;;;5035599;28;20021;-85
2022/06/27 03:45:20;;;;;;;13.55;7.43;;;16.20;99.90;;;;;;5035503;28;20112;-85
2022/06/27 03:47:57;;;;;;;8.82;7.35;;;16.20;99.90;;;;;;5035588;28;20474;-85
2022/06/27 03:50:24;;;;;;;9.27;6.85;;;16.20;99.90;;;;;;5035442;28;20021;-86
2022/06/27 03:52:50;;;;;;;12.80;8.00;;;16.10;99.90;;;;;;5035526;28;20474;-85
2022/06/27 03:55:16;;;;;;;11.27;7.70;;;16.10;99.90;;;;;;5035445;28;20021;-85
2022/06/27 03:57:54;;;;;;;8.68;7.53;;;16.00;99.90;;;;;;5035338;28;20486;-85
2022/06/27 04:00:22;;;;;;;13.13;8.32;;;15.90;99.90;;;;;;5035263;28;20025;-85
2022/06/27 04:02:48;;;;;;;17.65;8.43;;;15.90;99.90;;;;;;5036540;28;20036;-85
2022/06/27 04:05:13;;;;;;;16.17;8.60;;;15.90;99.90;;;;;;5035291;28;20479;-85
2022/06/27 04:07:39;;;;;;;10.50;7.88;;;15.80;99.90;;;;;;5035176;28;20033;-85
2022/06/27 04:10:07;;;;;;;9.70;7.95;;;15.70;99.90;;;;;;5035217;28;20025;-85
2022/06/27 04:12:32;;;;;;;10.18;7.35;;;15.70;99.90;;;;;;5034428;28;20021;-87
2022/06/27 04:14:58;;;;;;;9.75;7.88;;;15.70;99.90;;;;;;5035217;28;20040;-85
2022/06/27 04:17:24;;;;;;;12.65;8.18;;;15.60;99.90;;;;;;5036243;28;20043;-85
2022/06/27 04:19:49;;;;;;;9.13;7.10;;;15.60;99.90;;;;;;5036022;28;20092;-85
2022/06/27 04:22:15;;;;;;;10.68;7.85;;;15.60;99.90;;;;;;5036125;28;20025;-85
2022/06/27 04:24:41;;;;;;;11.10;8.00;;;15.70;99.90;;;;;;5034685;28;20022;-85
2022/06/27 04:27:07;;;;;;;11.55;7.72;;;15.70;99.90;;;;;;5034819;28;20017;-85
2022/06/27 04:29:33;;;;;;;12.00;6.65;;;15.70;99.90;;;;;;5035990;28;20469;-85
2022/06/27 04:31:58;;;;;;;8.63;7.18;;;15.70;99.90;;;;;;5035883;28;20032;-86
2022/06/27 04:34:24;;;;;;;11.07;7.32;;;15.80;99.90;;;;;;5034779;28;20036;-85
2022/06/27 04:36:50;;;;;;;10.40;6.97;;;15.90;99.90;;;;;;5050193;28;20049;-85
2022/06/27 04:39:19;;;;;;;14.32;8.43;;;16.00;99.90;;;;;;5055634;28;20385;-85
2022/06/27 04:41:46;;;;;;;12.32;8.25;;;16.10;99.90;;;;;;5038003;28;20024;-85
2022/06/27 04:44:11;;;;;;;13.48;8.73;;;16.20;99.90;;;;;;5037737;28;20033;-85
2022/06/27 04:46:41;;;;;;;13.90;8.60;;;16.40;99.90;;;;;;5055470;28;20031;-85
2022/06/27 04:49:07;;;;;;;12.13;8.13;;;16.50;99.90;;;;;;5055456;28;20021;-86
2022/06/27 04:51:33;;;;;;;9.25;7.72;;;16.60;99.90;;;;;;5055426;28;20496;-85
2022/06/27 04:53:58;;;;;;;8.60;7.40;;;16.70;99.90;;;;;;5055582;28;20054;-85
2022/06/27 04:56:25;;;;;;;10.32;7.90;;;16.90;99.90;;;;;;5037300;28;20028;-85
2022/06/27 04:58:51;;;;;;;13.07;7.88;;;16.90;99.90;;;;;;5037394;28;20033;-85
2022/06/27 05:01:17;;;;;;;10.32;8.20;;;17.10;99.90;;;;;;5055083;28;20496;-85
2022/06/27 05:03:42;;;;;;;12.93;8.52;;;17.10;99.90;;;;;;5037521;28;20020;-85
2022/06/27 05:06:08;;;;;;;13.00;7.93;;;17.20;99.90;;;;;;5037348;28;20025;-85
2022/06/27 05:08:36;;;;;;;10.07;7.57;;;17.40;99.90;;;;;;5037315;28;20028;-85
2022/06/27 05:11:01;;;;;;;8.30;7.13;;;17.50;99.90;;;;;;5037251;28;20025;-84
2022/06/27 05:13:28;;;;;;;9.43;6.38;;;17.60;99.90;;;;;;5025873;28;20036;-85
2022/06/27 05:15:54;;;;;;;11.65;6.38;;;17.70;99.90;;;;;;5017340;28;20052;-85
2022/06/27 05:18:19;;;;;;;10.32;7.20;;;17.70;99.90;;;;;;5017258;28;20400;-85
2022/06/27 05:20:45;;;;;;;10.27;7.30;;;17.80;99.90;;;;;;5017334;28;20025;-85
2022/06/27 05:23:10;;;;;;;10.93;7.07;;;17.80;99.90;;;;;;5017251;28;20029;-86
2022/06/27 05:25:36;;;;;;;16.35;8.02;;;17.80;99.90;;;;;;5016714;28;20022;-85
2022/06/27 05:28:03;;;;;;;13.02;7.43;;;17.80;99.90;;;;;;5016815;28;20073;-85
2022/06/27 05:30:30;;;;;;;8.40;6.65;;;17.70;99.90;;;;;;5017034;28;20390;-85
2022/06/27 05:32:56;;;;;;;8.80;6.93;;;17.70;99.90;;;;;;5017034;28;20030;-85
2022/06/27 05:35:22;;;;;;;12.80;7.32;;;17.60;99.90;;;;;;5016875;28;20097;-85
2022/06/27 05:37:48;;;;;;;10.52;7.88;;;17.60;99.90;;;;;;5017112;28;20482;-85
2022/06/27 05:40:14;;;;;;;9.63;8.30;;;17.60;99.90;;;;;;5016951;28;20060;-85
2022/06/27 05:42:40;;;;;;;9.10;6.75;;;17.60;99.90;;;;;;5016682;28;20080;-85
2022/06/27 05:45:07;;;;;;;11.45;7.25;;;17.60;99.90;;;;;;5016877;28;20389;-85
2022/06/27 05:47:32;;;;;;;9.30;7.10;;;17.60;99.90;;;;;;5016857;28;20130;-85
2022/06/27 05:49:59;;;;;;;9.70;6.97;;;17.60;99.90;;;;;;5033218;28;20523;-85
2022/06/27 05:52:25;;;;;;;9.05;6.70;;;17.60;99.90;;;;;;5034175;28;20044;-85
2022/06/27 05:54:52;;;;;;;13.23;7.70;;;17.60;99.90;;;;;;5017024;28;20477;-85
2022/06/27 05:57:18;;;;;;;10.18;7.85;;;17.60;99.90;;;;;;5034116;28;20540;-85
2022/06/27 05:59:44;;;;;;;13.50;8.73;;;17.60;99.90;;;;;;5016467;28;20059;-85
2022/06/27 06:02:10;;;;;;;12.20;8.95;;;17.70;99.90;;;;;;5016493;28;20022;-85
2022/06/27 06:04:36;;;;;;;12.05;9.52;;;17.80;99.90;;;;;;5016361;28;20099;-85
2022/06/27 06:07:03;;;;;;;10.65;8.45;;;17.80;99.90;;;;;;5016595;28;20040;-85
2022/06/27 06:09:28;;;;;;;10.40;8.50;;;17.90;99.90;;;;;;5016441;28;20557;-85
2022/06/27 06:11:55;;;;;;;12.35;8.18;;;17.90;99.90;;;;;;5016204;28;20056;-85
2022/06/27 06:14:21;;;;;;;9.70;8.10;;;17.90;99.90;;;;;;5016183;28;20048;-86
2022/06/27 06:16:50;;;;;;;9.35;8.25;;;18.00;99.90;;;;;;5016278;28;20385;-85
2022/06/27 06:19:17;;;;;;;15.95;9.07;;;18.00;99.90;;;;;;5016510;28;20504;-85
2022/06/27 06:21:43;;;;;;;15.38;8.88;;;18.00;99.90;;;;;;5016358;28;20504;-85
2022/06/27 06:24:09;;;;;;;12.73;8.50;;;18.00;99.90;;;;;;5016166;28;20030;-85
2022/06/27 06:26:35;;;;;;;12.18;9.27;;;18.00;99.90;;;;;;5016450;28;20026;-85
2022/06/27 06:29:11;;;;;;;12.45;9.70;;;18.00;99.90;;;;;;5016154;28;20026;-85
2022/06/27 06:31:38;;;;;;;10.07;8.48;;;18.00;99.90;;;;;;5016386;28;20035;-85
2022/06/27 06:34:04;;;;;;;15.35;9.52;;;18.00;99.90;;;;;;5033405;28;20024;-86
2022/06/27 06:36:30;;;;;;;12.75;9.35;;;18.10;99.90;;;;;;5012454;28;20049;-85
2022/06/27 06:38:57;;;;;;;12.70;8.93;;;18.10;99.90;;;;;;5012474;28;20032;-85
2022/06/27 06:41:23;;;;;;;12.88;9.50;;;18.10;99.90;;;;;;5013046;28;20029;-85
2022/06/27 06:43:49;;;;;;;11.00;9.20;;;18.10;99.90;;;;;;5029275;28;20021;-85
2022/06/27 06:46:15;;;;;;;11.63;9.15;;;18.10;99.90;;;;;;5012640;28;20018;-85
2022/06/27 06:48:41;;;;;;;12.95;10.18;;;18.20;99.90;;;;;;5013092;28;20080;-85
2022/06/27 06:51:07;;;;;;;12.75;9.02;;;18.20;99.90;;;;;;5013933;28;20026;-85
2022/06/27 06:53:36;;;;;;;15.95;9.68;;;18.20;99.90;;;;;;5013686;28;20037;-85
2022/06/27 06:56:03;;;;;;;12.57;9.40;;;18.30;99.90;;;;;;5012831;28;20482;-85
2022/06/27 06:58:28;;;;;;;13.05;9.43;;;18.30;99.90;;;;;;5013676;28;20433;-85
2022/06/27 07:00:56;;;;;;;13.13;10.85;;;18.40;99.90;;;;;;5013883;28;20029;-85
2022/06/27 07:03:22;;;;;;;13.15;10.75;;;18.40;99.90;;;;;;5013764;28;20478;-85
2022/06/27 07:05:48;;;;;;;14.65;11.05;;;18.50;99.90;;;;;;5012473;28;20621;-86
2022/06/27 07:08:13;;;;;;;13.90;10.88;;;18.50;99.90;;;;;;5012561;28;20030;-85
2022/06/27 07:10:40;;;;;;;14.48;10.68;;;18.60;99.90;;;;;;5012228;28;20032;-86
2022/06/27 07:13:06;;;;;;;17.33;10.50;;;18.70;99.90;;;;;;5013625;28;20029;-85
2022/06/27 07:15:33;;;;;;;14.98;10.45;;;18.70;99.90;;;;;;5028902;28;20116;-85
2022/06/27 07:18:00;;;;;;;16.13;10.20;;;18.80;99.90;;;;;;5012376;28;20038;-85
2022/06/27 07:20:26;;;;;;;13.43;9.77;;;18.90;99.90;;;;;;5012816;28;20553;-85
2022/06/27 07:22:52;;;;;;;15.50;11.63;;;18.90;99.90;;;;;;5013279;28;20478;-85
2022/06/27 07:25:18;;;;;;;14.40;10.95;;;19.00;99.90;;;;;;5012169;28;20030;-85
2022/06/27 07:27:46;;;;;;;12.10;10.00;;;19.10;99.90;;;;;;5013414;28;20467;-85
2022/06/27 07:30:13;;;;;;;13.05;10.75;;;19.20;99.90;;;;;;5013512;28;20101;-85
2022/06/27 07:32:40;;;;;;;14.05;11.38;;;19.20;99.90;;;;;;5013717;28;20041;-85
2022/06/27 07:35:09;;;;;;;15.20;11.70;;;19.30;99.90;;;;;;5012175;28;20071;-85
2022/06/27 07:37:36;;;;;;;16.75;13.52;;;19.30;99.90;;;;;;5033022;28;20033;-85
2022/06/27 07:40:03;;;;;;;16.02;12.65;;;19.40;99.90;;;;;;5015454;28;20084;-85
2022/06/27 07:42:29;;;;;;;16.33;12.18;;;19.40;99.90;;;;;;5033334;28;20060;-85
2022/06/27 07:44:55;;;;;;;15.07;12.07;;;19.40;99.90;;;;;;5032976;28;20036;-85
2022/06/27 07:47:20;;;;;;;15.40;12.10;;;19.40;99.90;;;;;;5031781;28;20104;-85
2022/06/27 07:49:46;;;;;;;18.45;13.30;;;19.50;99.90;;;;;;5033350;28;20026;-85
2022/06/27 07:52:12;;;;;;;15.70;12.38;;;19.60;99.90;;;;;;5036185;28;20034;-85
2022/06/27 07:54:38;;;;;;;14.82;13.27;;;19.80;99.90;;;;;;5035399;28;20519;-85
2022/06/27 07:57:05;;;;;;;15.45;12.98;;;20.00;99.90;;;;;;5035148;28;20033;-85
2022/06/27 07:59:32;;;;;;;14.15;12.32;;;20.10;99.90;;;;;;5035266;28;20060;-85
2022/06/27 08:01:58;;;;;;;15.15;12.02;;;20.20;99.90;;;;;;5018961;28;20029;-85
2022/06/27 08:04:23;;;;;;;14.20;10.75;;;20.40;99.90;;;;;;5036299;28;20097;-85
2022/06/27 08:06:50;;;;;;;13.93;11.43;;;20.50;99.90;;;;;;5036023;28;20430;-85
2022/06/27 08:09:21;;;;;;;13.40;11.30;;;20.60;99.90;;;;;;5018408;28;20116;-85
2022/06/27 08:11:47;;;;;;;18.02;11.82;;;20.70;99.90;;;;;;5035280;28;20112;-85
2022/06/27 08:14:18;;;;;;;13.77;11.07;;;20.90;99.90;;;;;;5018626;28;20075;-85
2022/06/27 08:16:48;;;;;;;13.18;11.52;;;21.00;99.90;;;;;;5018283;28;20401;-85
2022/06/27 08:19:15;;;;;;;11.40;9.68;;;21.00;99.90;;;;;;5035988;28;20385;-85
2022/06/27 08:21:41;;;;;;;13.27;9.73;;;21.10;99.90;;;;;;5018401;28;20093;-85
2022/06/27 08:24:08;;;;;;;11.98;8.73;;;21.10;99.90;;;;;;5018592;28;20032;-85
2022/06/27 08:26:36;;;;;;;11.68;9.18;;;21.20;99.90;;;;;;5018662;28;20025;-85
2022/06/27 08:29:06;;;;;;;12.40;9.18;;;21.30;99.90;;;;;;5018110;28;20029;-85
2022/06/27 08:31:33;;;;;;;10.98;8.50;;;21.30;99.90;;;;;;5018908;28;20029;-85
2022/06/27 08:34:01;;;;;;;10.77;7.78;;;21.50;99.90;;;;;;5018201;28;20025;-85
2022/06/27 08:36:30;;;;;;;9.63;7.00;;;21.70;99.90;;;;;;5017886;28;20505;-85
2022/06/27 08:38:58;;;;;;;9.75;6.93;;;21.80;99.90;;;;;;5035670;28;20025;-85
2022/06/27 08:41:24;;;;;;;9.40;6.97;;;21.80;99.90;;;;;;5018212;28;20056;-85
2022/06/27 08:43:58;;;;;;;10.45;6.68;;;21.90;99.90;;;;;;5018031;28;20056;-86
2022/06/27 08:46:24;;;;;;;12.10;7.28;;;22.00;99.90;;;;;;5018063;28;20026;-85
2022/06/27 08:48:50;;;;;;;10.07;6.35;;;22.00;99.90;;;;;;5035519;28;20051;-85
2022/06/27 08:51:16;;;;;;;10.95;6.78;;;22.10;99.90;;;;;;5018079;28;20362;-85
2022/06/27 08:53:43;;;;;;;7.90;6.45;;;22.10;99.90;;;;;;5017825;28;20022;-85
2022/06/27 08:56:10;;;;;;;9.32;6.90;;;22.00;99.90;;;;;;5017810;28;20029;-85
2022/06/27 08:58:37;;;;;;;9.88;6.60;;;21.90;99.90;;;;;;5017640;28;20493;-86
2022/06/27 09:01:03;;;;;;;9.95;6.60;;;21.90;99.90;;;;;;5017705;28;20387;-85
2022/06/27 09:03:30;;;;;;;6.72;5.95;;;21.90;99.90;;;;;;5035232;28;20465;-85
2022/06/27 09:05:57;;;;;;;10.88;5.72;;;21.90;99.90;;;;;;5017414;28;20025;-86
2022/06/27 09:08:25;;;;;;;8.10;5.68;;;21.90;99.90;;;;;;5017622;28;20060;-86
2022/06/27 09:10:52;;;;;;;10.02;5.53;;;21.90;99.90;;;;;;5017475;28;20500;-85
2022/06/27 09:13:19;;;;;;;8.30;5.47;;;21.80;99.90;;;;;;5017419;28;20037;-85
2022/06/27 09:15:48;;;;;;;7.97;5.80;;;21.80;99.90;;;;;;5017316;28;20040;-85
2022/06/27 09:18:16;;;;;;;11.55;6.72;;;21.70;99.90;;;;;;5017610;28;20401;-86
2022/06/27 09:20:59;;;;;;;8.30;5.40;;;21.70;99.90;;;;;;5017536;28;20057;-85
2022/06/27 09:23:29;;;;;;;9.98;6.60;;;21.80;99.90;;;;;;5017278;28;20033;-86
2022/06/27 09:26:06;;;;;;;9.73;6.25;;;21.80;99.90;;;;;;5034647;28;20022;-85
2022/06/27 09:28:56;;;;;;;9.70;6.88;;;22.10;99.90;;;;;;5017113;28;20063;-85
2022/06/27 09:31:31;;;;;;;8.75;5.97;;;22.20;99.90;;;;;;5017112;28;20026;-85
2022/06/27 09:34:33;;;;;;;9.65;6.05;;;22.30;99.90;;;;;;5017193;28;20393;-86
2022/06/27 09:37:01;;;;;;;;;;;22.50;99.90;;;;;;4954818;29;20051;-85
2022/06/27 09:39:35;;;;;;;8.57;5.60;;;22.50;99.90;;;;;;5002759;28;19996;-85
2022/06/27 09:42:04;;;;;;;10.55;5.97;;;22.60;99.90;;;;;;5017014;28;20033;-85
2022/06/27 09:44:32;;;;;;;8.65;6.43;;;22.70;99.90;;;;;;5034426;28;20069;-86
2022/06/27 09:47:20;;;;;;;9.77;6.68;;;22.80;99.90;;;;;;5016749;28;20021;-85
2022/06/27 09:49:50;;;;;;;9.98;6.68;;;22.80;99.90;;;;;;5033589;28;20026;-85
2022/06/27 09:52:20;;;;;;;9.52;7.05;;;22.80;99.90;;;;;;5016783;28;20075;-86
2022/06/27 09:54:49;;;;;;;8.77;5.95;;;22.80;99.90;;;;;;5016989;28;20060;-85
2022/06/27 09:57:16;;;;;;;9.07;6.80;;;22.80;99.90;;;;;;5034229;28;20063;-85
2022/06/27 09:59:44;;;;;;;8.10;5.80;;;22.90;99.90;;;;;;5016368;28;20380;-85
2022/06/27 10:02:13;;;;;;;8.73;6.18;;;23.00;99.90;;;;;;5016480;28;20029;-85
2022/06/27 10:04:42;;;;;;;10.20;5.20;;;23.00;99.90;;;;;;5034218;28;20017;-85
2022/06/27 10:07:09;;;;;;;7.18;5.43;;;23.10;99.90;;;;;;5016439;28;20152;-85
2022/06/27 10:09:38;;;;;;;5.55;4.28;;;23.30;99.70;;;;;;5032840;28;20021;-85
2022/06/27 10:12:27;;;;;;;8.98;4.97;;;23.50;99.10;;;;;;5033447;28;20025;-85
2022/06/27 10:15:11;;;;;;;7.15;4.80;;;23.80;98.40;;;;;;5016383;28;20112;-85
2022/06/27 10:17:47;;;;;;;5.88;4.18;;;23.80;97.80;;;;;;5016258;28;20037;-85
2022/06/27 10:20:19;;;;;;;9.90;5.50;;;23.70;98.20;;;;;;5016373;28;20021;-85
2022/06/27 10:23:07;;;;;;;6.15;4.25;;;23.60;98.00;;;;;;5033719;28;20018;-85
2022/06/27 10:25:34;;;;;;;5.25;2.75;;;23.60;97.90;;;;;;5002663;28;20516;-85
2022/06/27 10:28:12;;;;;;;6.25;3.35;;;23.50;96.70;;;;;;5016124;28;20021;-85
2022/06/27 10:30:48;;;;;;;6.18;3.35;;;23.40;96.70;;;;;;5033692;28;20028;-85
2022/06/27 10:33:25;;;;;;;6.35;3.63;;;23.40;96.10;;;;;;5015924;28;20044;-85
2022/06/27 10:36:09;;;;;;;7.25;3.80;;;23.50;96.00;;;;;;5015853;28;20045;-85
2022/06/27 10:38:43;;;;;;;10.32;6.13;;;23.50;95.40;;;;;;5015912;28;20068;-85
2022/06/27 10:41:31;;;;;;;6.68;4.70;;;23.70;95.10;;;;;;5032380;28;20033;-85
2022/06/27 10:43:59;;;;;;;7.15;5.60;;;23.70;95.20;;;;;;5015811;28;20029;-86
2022/06/27 10:46:24;;;;;;;8.98;5.95;;;24.00;95.30;;;;;;5015692;28;20033;-85
2022/06/27 10:48:54;;;;;;;7.82;5.30;;;24.20;94.70;;;;;;5016200;28;20033;-85
2022/06/27 10:51:27;;;;;;;8.38;5.35;;;24.40;94.30;;;;;;5033277;28;20052;-85
2022/06/27 10:54:04;;;;;;;8.02;4.85;;;24.50;94.00;;;;;;5033401;28;20159;-85
2022/06/27 10:56:30;;;;;;;7.50;5.43;;;24.50;94.20;;;;;;5033247;28;20059;-85
2022/06/27 10:58:57;;;;;;;8.52;5.75;;;24.50;93.90;;;;;;5033404;28;20033;-85
2022/06/27 11:01:23;;;;;;;7.30;4.72;;;24.60;94.00;;;;;;5015878;28;20029;-85
2022/06/27 11:03:49;;;;;;;10.52;5.00;;;24.70;93.50;;;;;;5032241;28;20120;-85
2022/06/27 11:06:15;;;;;;;7.75;4.28;;;24.80;92.70;;;;;;5034611;28;20017;-85
2022/06/27 11:08:46;;;;;;;7.28;3.38;;;24.90;92.70;;;;;;5035407;28;20033;-86
2022/06/27 11:11:23;;;;;;;9.47;3.73;;;25.20;92.10;;;;;;5053383;28;20017;-86
2022/06/27 11:13:53;;;;;;;6.28;4.63;;;25.40;91.50;;;;;;5053256;28;20040;-85
2022/06/27 11:16:26;;;;;;;6.35;3.42;;;25.40;90.80;;;;;;5053190;28;20017;-86
2022/06/27 11:20:04;;;;;;;7.55;3.33;;;25.30;91.00;;;;;;5053042;28;20041;-86
2022/06/27 11:21:53;;;;;;;4.15;2.50;;;25.20;90.90;;;;;;5052947;28;20125;-86
2022/06/27 11:24:19;;;;;;;7.93;3.42;;;25.20;90.80;;;;;;5056987;28;20064;-86
2022/06/27 11:26:48;;;;;;;6.82;3.20;;;25.10;90.60;;;;;;5039445;28;20370;-85
2022/06/27 11:32:06;;;;;;;6.40;2.97;;;25.00;90.40;;;;;;5057201;28;20040;-85
2022/06/27 11:34:34;;;;;;;6.75;3.17;;;24.90;90.40;;;;;;5039192;28;20037;-86
2022/06/27 11:37:07;;;;;;;5.97;2.60;;;24.90;90.40;;;;;;5038849;28;20041;-85
2022/06/27 11:39:33;;;;;;;5.63;3.00;;;24.80;90.70;;;;;;5039433;28;20051;-85
2022/06/27 11:42:09;;;;;;;9.13;3.55;;;24.60;90.50;;;;;;5038703;28;20029;-85
2022/06/27 11:44:36;;;;;;;6.82;3.28;;;24.50;90.50;;;;;;5038989;28;20396;-85
2022/06/27 11:47:07;;;;;;;5.95;3.95;;;24.30;90.60;;;;;;5056641;28;20021;-86
2022/06/27 11:49:35;;;;;;;7.67;3.90;;;24.30;90.40;;;;;;5056650;28;20488;-86
2022/06/27 11:52:12;;;;;;;6.45;3.53;;;24.30;90.40;;;;;;5056360;28;20017;-86
2022/06/27 11:54:46;;;;;;;5.45;3.13;;;24.20;90.10;;;;;;5038698;28;20025;-85
2022/06/27 11:57:22;;;;;;;6.35;3.90;;;24.30;90.30;;;;;;5038788;28;20116;-85
2022/06/27 11:59:49;;;;;;;6.10;3.70;;;24.40;90.30;;;;;;5038709;28;20028;-86
2022/06/27 12:02:34;;;;;;;5.45;2.40;;;24.50;90.10;;;;;;5038651;28;20029;-86
2022/06/27 12:05:13;;;;;;;5.78;2.15;;;24.80;90.10;;;;;;5038709;28;20074;-87
2022/06/27 12:08:06;;;;;;;5.88;2.25;;;25.00;89.30;;;;;;5038779;28;20033;-85
2022/06/27 12:13:31;;;;;;;3.65;2.22;;;25.10;87.20;;;;;;5056553;28;20083;-86
2022/06/27 12:16:00;;;;;;;5.25;3.10;;;25.00;87.00;;;;;;5038561;28;20036;-85
2022/06/27 12:18:33;;;;;;;5.85;2.20;;;24.90;87.20;;;;;;5038345;28;20037;-85
2022/06/27 12:20:59;;;;;;;5.40;2.92;;;24.80;87.50;;;;;;5038333;28;20029;-85
2022/06/27 12:23:24;;;;;;;5.65;2.60;;;24.70;87.80;;;;;;5055921;28;20027;-86
2022/06/27 12:25:50;;;;;;;7.13;3.25;;;24.70;88.30;;;;;;5038160;28;20119;-85
2022/06/27 12:28:15;;;;;;;5.03;2.53;;;24.50;89.00;;;;;;5038216;28;20064;-86
2022/06/27 12:30:41;;;;;;;4.18;2.33;;;24.40;89.00;;;;;;5038215;28;20052;-85
2022/06/27 12:33:07;;;;;;;5.25;2.15;;;24.20;90.00;;;;;;5038345;28;20033;-86
2022/06/27 12:35:32;;;;;;;5.55;2.67;;;24.20;90.30;;;;;;5033978;28;20042;-86
2022/06/27 12:38:00;;;;;;;9.30;4.28;;;24.10;90.60;;;;;;5035651;28;20135;-86
2022/06/27 12:40:26;;;;;;;8.80;3.03;;;24.10;90.50;;;;;;5034821;28;20032;-85
2022/06/27 12:42:51;;;;;;;7.13;3.17;;;24.00;90.60;;;;;;5034476;28;20025;-85
2022/06/27 12:45:17;;;;;;;5.68;3.15;;;23.90;90.40;;;;;;5035601;28;20032;-85
2022/06/27 12:47:43;;;;;;;7.40;3.55;;;23.80;90.60;;;;;;5034349;28;20580;-85
2022/06/27 12:50:09;;;;;;;4.35;2.50;;;23.70;90.50;;;;;;5035618;28;20052;-85
2022/06/27 12:52:34;;;;;;;8.27;3.15;;;23.60;90.80;;;;;;5035501;28;20371;-85